createdAt,value
2023-06-04T00:01:46.165Z,102273.16
2023-06-04T00:04:49.848Z,102272.34
2023-06-04T00:07:55.566Z,102277.63
2023-06-04T00:10:59.172Z,102285.63
2023-06-04T00:14:03.038Z,102271.59
2023-06-04T00:17:07.352Z,102276.94
2023-06-04T00:20:12.669Z,102278.75
2023-06-04T00:23:17.947Z,102270.00
2023-06-04T00:26:22.630Z,102273.63
2023-06-04T00:29:26.406Z,102280.59
2023-06-04T00:32:30.224Z,102279.78
2023-06-04T00:35:35.547Z,102276.34
2023-06-04T00:38:40.770Z,102278.97
2023-06-04T00:41:44.465Z,102279.88
2023-06-04T00:44:48.626Z,102276.44
2023-06-04T00:47:52.377Z,102270.44
2023-06-04T00:50:59.790Z,102265.25
2023-06-04T00:54:10.316Z,102274.81
2023-06-04T00:57:14.042Z,102284.34
2023-06-04T01:00:18.816Z,102272.25
2023-06-04T01:03:30.450Z,102279.53
2023-06-04T01:06:41.929Z,102273.56
2023-06-04T01:09:47.858Z,102279.88
2023-06-04T01:12:51.477Z,102284.34
2023-06-04T01:15:55.309Z,102282.66
2023-06-04T01:19:03.722Z,102286.22
2023-06-04T01:22:26.437Z,102280.25
2023-06-04T01:25:40.252Z,102289.03
2023-06-04T01:28:46.616Z,102293.41
2023-06-04T01:31:54.331Z,102290.00
2023-06-04T01:34:58.345Z,102292.69
2023-06-04T01:38:02.092Z,102285.75
2023-06-04T01:41:07.756Z,102285.78
2023-06-04T01:44:11.613Z,102291.03
2023-06-04T01:47:15.254Z,102289.31
2023-06-04T01:50:18.948Z,102288.44
2023-06-04T01:53:22.654Z,102289.31
2023-06-04T01:56:27.801Z,102284.94
2023-06-04T01:59:33.210Z,102291.13
2023-06-04T02:02:37.345Z,102292.00
2023-06-04T02:05:41.253Z,102285.00
2023-06-04T02:08:45.048Z,102288.53
2023-06-04T02:11:50.262Z,102291.13
2023-06-04T02:14:54.060Z,102293.78
2023-06-04T02:18:00.984Z,102295.53
2023-06-04T02:21:04.816Z,102291.19
2023-06-04T02:24:08.777Z,102293.78
2023-06-04T02:27:15.524Z,102292.06
2023-06-04T02:30:19.180Z,102289.44
2023-06-04T02:33:22.968Z,102286.84
2023-06-04T02:36:26.597Z,102285.97
2023-06-04T02:39:30.250Z,102290.31
2023-06-04T02:42:35.333Z,102302.50
2023-06-04T02:45:39.007Z,102305.13
2023-06-04T02:48:42.685Z,102303.41
2023-06-04T02:51:47.185Z,102295.53
2023-06-04T02:54:50.858Z,102306.00
2023-06-04T02:57:55.860Z,102301.66
2023-06-04T03:00:59.411Z,102308.63
2023-06-04T03:04:04.931Z,102306.88
2023-06-04T03:07:09.205Z,102309.47
2023-06-04T03:10:14.829Z,102303.38
2023-06-04T03:13:19.833Z,102306.00
2023-06-04T03:16:23.490Z,102312.09
2023-06-04T03:19:27.217Z,102307.75
2023-06-04T03:22:30.904Z,102303.38
2023-06-04T03:25:34.541Z,102310.34
2023-06-04T03:28:39.464Z,102313.81
2023-06-04T03:31:46.225Z,102303.38
2023-06-04T03:34:49.882Z,102308.59
2023-06-04T03:37:53.481Z,102305.13
2023-06-04T03:40:57.407Z,102303.38
2023-06-04T03:44:02.393Z,102307.72
2023-06-04T03:47:06.719Z,102302.47
2023-06-04T03:50:11.674Z,102299.84
2023-06-04T03:53:15.402Z,102305.94
2023-06-04T03:56:19.160Z,102296.38
2023-06-04T03:59:24.266Z,102292.00
2023-06-04T04:02:27.966Z,102295.53
2023-06-04T04:05:31.609Z,102293.75
2023-06-04T04:08:35.486Z,102301.59
2023-06-04T04:11:39.181Z,102288.47
2023-06-04T04:14:44.244Z,102285.00
2023-06-04T04:17:47.869Z,102287.56
2023-06-04T04:20:51.751Z,102283.16
2023-06-04T04:23:55.889Z,102283.09
2023-06-04T04:26:59.946Z,102282.19
2023-06-04T04:30:05.878Z,102288.16
2023-06-04T04:33:09.495Z,102282.00
2023-06-04T04:36:14.746Z,102277.28
2023-06-04T04:39:18.313Z,102279.78
2023-06-04T04:42:22.114Z,102277.84
2023-06-04T04:45:27.139Z,102281.78
2023-06-04T04:48:30.744Z,102279.78
2023-06-04T04:51:34.346Z,102277.88
2023-06-04T04:54:38.003Z,102280.06
2023-06-04T04:57:41.934Z,102277.66
2023-06-04T05:00:48.966Z,102275.16
2023-06-04T05:03:52.683Z,102279.00
2023-06-04T05:06:56.299Z,102276.25
2023-06-04T05:10:00.277Z,102272.94
2023-06-04T05:13:03.968Z,102277.16
2023-06-04T05:16:09.073Z,102265.13
2023-06-04T05:19:12.889Z,102263.94
2023-06-04T05:22:19.807Z,102267.84
2023-06-04T05:25:23.892Z,102273.56
2023-06-04T05:28:27.492Z,102278.91
2023-06-04T05:31:34.546Z,102277.03
2023-06-04T05:34:38.230Z,102269.88
2023-06-04T05:37:43.245Z,102274.25
2023-06-04T05:40:47.348Z,102274.78
2023-06-04T05:43:51.033Z,102279.03
2023-06-04T05:46:56.334Z,102285.00
2023-06-04T05:50:00.156Z,102281.25
2023-06-04T05:53:03.873Z,102284.19
2023-06-04T05:56:07.676Z,102285.00
2023-06-04T05:59:11.460Z,102291.53
2023-06-04T06:02:16.786Z,102290.84
2023-06-04T06:05:21.791Z,102297.72
2023-06-04T06:08:25.796Z,102282.50
2023-06-04T06:11:29.711Z,102284.53
2023-06-04T06:14:33.558Z,102288.88
2023-06-04T06:17:40.421Z,102283.13
2023-06-04T06:20:45.721Z,102282.63
2023-06-04T06:23:49.525Z,102283.44
2023-06-04T06:26:53.322Z,102293.38
2023-06-04T06:29:56.993Z,102293.19
2023-06-04T06:33:02.009Z,102295.31
2023-06-04T06:36:07.052Z,102294.56
2023-06-04T06:39:11.561Z,102298.38
2023-06-04T06:42:15.346Z,102296.41
2023-06-04T06:45:19.724Z,102297.63
2023-06-04T06:48:24.729Z,102291.44
2023-06-04T06:51:28.553Z,102285.81
2023-06-04T06:54:32.153Z,102285.31
2023-06-04T06:57:36.205Z,102287.91
2023-06-04T07:00:39.990Z,102284.16
2023-06-04T07:03:45.148Z,102291.34
2023-06-04T07:06:48.783Z,102302.19
2023-06-04T07:09:52.788Z,102300.22
2023-06-04T07:12:56.449Z,102298.66
2023-06-04T07:16:01.209Z,102294.03
2023-06-04T07:19:06.310Z,102301.38
2023-06-04T07:22:09.989Z,102299.09
2023-06-04T07:25:13.588Z,102299.53
2023-06-04T07:28:17.307Z,102286.13
2023-06-04T07:31:20.949Z,102290.31
2023-06-04T07:34:26.370Z,102301.28
2023-06-04T07:37:29.962Z,102296.41
2023-06-04T07:40:33.659Z,102296.38
2023-06-04T07:43:37.937Z,102286.34
2023-06-04T07:46:41.897Z,102285.59
2023-06-04T07:50:01.377Z,102285.81
2023-06-04T07:53:06.036Z,102287.91
2023-06-04T07:56:09.756Z,102292.69
2023-06-04T07:59:13.475Z,102281.03
2023-06-04T08:02:17.211Z,102286.84
2023-06-04T08:05:22.574Z,102273.78
2023-06-04T08:08:26.674Z,102272.69
2023-06-04T08:11:32.044Z,102280.88
2023-06-04T08:14:35.705Z,102281.22
2023-06-04T08:17:39.505Z,102279.28
2023-06-04T08:20:44.548Z,102281.69
2023-06-04T08:23:48.362Z,102284.69
2023-06-04T08:26:52.500Z,102294.59
2023-06-04T08:29:56.332Z,102305.94
2023-06-04T08:32:59.965Z,102284.78
2023-06-04T08:36:05.335Z,102281.00
2023-06-04T08:39:10.946Z,102279.72
2023-06-04T08:42:29.988Z,102298.59
2023-06-04T08:45:41.254Z,102284.94
2023-06-04T08:48:45.418Z,102289.22
2023-06-04T08:51:50.695Z,102286.41
2023-06-04T08:54:56.830Z,102299.06
2023-06-04T08:58:03.390Z,102291.91
2023-06-04T09:01:07.345Z,102297.69
2023-06-04T09:04:13.325Z,102296.34
2023-06-04T09:07:19.972Z,102281.13
2023-06-04T09:10:27.660Z,102280.13
2023-06-04T09:13:35.370Z,102277.59
2023-06-04T09:16:46.915Z,102280.72
2023-06-04T09:19:51.411Z,102277.19
2023-06-04T09:22:56.484Z,102292.47
2023-06-04T09:26:10.166Z,102280.13
2023-06-04T09:29:13.870Z,102290.13
2023-06-04T09:32:23.381Z,102294.22
2023-06-04T09:35:27.086Z,102288.81
2023-06-04T09:38:42.194Z,102293.78
2023-06-04T09:41:46.021Z,102300.69
2023-06-04T09:44:49.712Z,102302.81
2023-06-04T09:47:53.420Z,102312.72
2023-06-04T09:50:57.287Z,102301.09
2023-06-04T09:54:04.824Z,102300.06
2023-06-04T09:57:17.872Z,102297.81
2023-06-04T10:00:23.780Z,102296.78
2023-06-04T10:03:32.184Z,102287.94
2023-06-04T10:06:37.575Z,102299.22
2023-06-04T10:09:46.945Z,102293.63
2023-06-04T10:12:57.331Z,102293.28
2023-06-04T10:16:02.601Z,102292.59
2023-06-04T10:19:09.976Z,102295.88
2023-06-04T10:22:14.151Z,102294.66
2023-06-04T10:25:20.574Z,102293.66
2023-06-04T10:28:25.991Z,102292.25
2023-06-04T10:31:29.820Z,102291.81
2023-06-04T10:34:34.110Z,102285.16
2023-06-04T10:37:37.907Z,102287.66
2023-06-04T10:40:43.135Z,102291.34
2023-06-04T10:43:50.571Z,102301.44
2023-06-04T10:46:54.328Z,102293.06
2023-06-04T10:50:10.095Z,102292.78
2023-06-04T10:53:13.777Z,102294.97
2023-06-04T10:56:29.311Z,102292.09
2023-06-04T10:59:33.021Z,102298.81
2023-06-04T11:02:36.735Z,102294.66
2023-06-04T11:05:42.244Z,102285.84
2023-06-04T11:08:46.771Z,102290.59
2023-06-04T11:12:00.958Z,102288.28
2023-06-04T11:15:04.890Z,102292.19
2023-06-04T11:18:10.578Z,102286.38
2023-06-04T11:21:15.879Z,102279.78
2023-06-04T11:24:19.854Z,102280.97
2023-06-04T11:27:36.403Z,102288.88
2023-06-04T11:30:40.815Z,102276.41
2023-06-04T11:33:45.881Z,102280.91
2023-06-04T11:36:50.957Z,102278.78
2023-06-04T11:39:54.541Z,102272.78
2023-06-04T11:42:59.724Z,102269.19
2023-06-04T11:46:10.934Z,102268.47
2023-06-04T11:49:18.863Z,102274.53
2023-06-04T11:52:23.357Z,102264.78
2023-06-04T11:55:28.010Z,102258.34
2023-06-04T11:58:34.621Z,102257.50
2023-06-04T12:01:38.922Z,102262.13
2023-06-04T12:04:43.654Z,102263.69
2023-06-04T12:07:48.842Z,102258.41
2023-06-04T12:10:52.856Z,102262.22
2023-06-04T12:13:59.377Z,102254.94
2023-06-04T12:17:05.640Z,102252.50
2023-06-04T12:20:11.723Z,102250.97
2023-06-04T12:23:23.503Z,102243.38
2023-06-04T12:26:30.782Z,102243.63
2023-06-04T12:29:36.813Z,102250.63
2023-06-04T12:32:40.423Z,102242.41
2023-06-04T12:35:45.891Z,102251.34
2023-06-04T12:38:49.600Z,102241.81
2023-06-04T12:41:53.258Z,102255.84
2023-06-04T12:44:58.418Z,102245.63
2023-06-04T12:48:02.200Z,102241.50
2023-06-04T12:51:06.274Z,102238.00
2023-06-04T12:54:10.405Z,102236.16
2023-06-04T12:57:14.505Z,102230.69
2023-06-04T13:00:19.762Z,102239.31
2023-06-04T13:03:24.211Z,102237.34
2023-06-04T13:06:28.024Z,102221.50
2023-06-04T13:09:33.733Z,102230.34
2023-06-04T13:12:37.318Z,102235.09
2023-06-04T13:15:42.371Z,102224.00
2023-06-04T13:18:46.038Z,102219.69
2023-06-04T13:21:49.677Z,102216.97
2023-06-04T13:24:53.265Z,102221.38
2023-06-04T13:27:57.122Z,102209.22
2023-06-04T13:31:02.820Z,102220.19
2023-06-04T13:34:22.245Z,102221.09
2023-06-04T13:37:30.070Z,102213.06
2023-06-04T13:40:33.688Z,102202.06
2023-06-04T13:43:37.315Z,102211.53
2023-06-04T13:46:44.007Z,102208.91
2023-06-04T13:49:47.635Z,102214.34
2023-06-04T13:52:52.279Z,102208.00
2023-06-04T13:55:59.281Z,102207.06
2023-06-04T13:59:03.116Z,102212.06
2023-06-04T14:02:09.041Z,102213.31
2023-06-04T14:05:12.993Z,102206.38
2023-06-04T14:08:17.020Z,102202.50
2023-06-04T14:11:20.695Z,102205.59
2023-06-04T14:14:24.336Z,102207.13
2023-06-04T14:17:29.663Z,102199.13
2023-06-04T14:20:33.486Z,102205.69
2023-06-04T14:23:37.282Z,102200.22
2023-06-04T14:26:40.916Z,102203.38
2023-06-04T14:29:44.594Z,102188.19
2023-06-04T14:32:49.740Z,102194.06
2023-06-04T14:35:53.379Z,102197.75
2023-06-04T14:38:57.023Z,102198.59
2023-06-04T14:42:00.630Z,102200.00
2023-06-04T14:45:05.506Z,102195.25
2023-06-04T14:48:14.930Z,102197.34
2023-06-04T14:51:19.912Z,102204.56
2023-06-04T14:54:23.537Z,102194.41
2023-06-04T14:57:27.098Z,102195.84
2023-06-04T15:00:30.879Z,102193.28
2023-06-04T15:03:36.032Z,102194.13
2023-06-04T15:06:39.764Z,102196.78
2023-06-04T15:09:43.401Z,102193.72
2023-06-04T15:12:46.976Z,102195.72
2023-06-04T15:15:50.697Z,102192.69
2023-06-04T15:18:58.180Z,102196.72
2023-06-04T15:22:01.877Z,102197.75
2023-06-04T15:25:06.712Z,102200.50
2023-06-04T15:28:10.301Z,102196.44
2023-06-04T15:31:13.975Z,102197.94
2023-06-04T15:34:19.798Z,102196.47
2023-06-04T15:37:23.758Z,102199.66
2023-06-04T15:40:27.358Z,102194.16
2023-06-04T15:43:31.077Z,102201.28
2023-06-04T15:46:34.800Z,102207.88
2023-06-04T15:49:39.791Z,102206.53
2023-06-04T15:52:43.362Z,102203.03
2023-06-04T15:55:47.270Z,102216.34
2023-06-04T15:58:50.919Z,102209.84
2023-06-04T16:01:54.618Z,102203.41
2023-06-04T16:04:59.678Z,102198.00
2023-06-04T16:08:04.730Z,102197.94
2023-06-04T16:11:08.468Z,102207.88
2023-06-04T16:14:12.349Z,102202.34
2023-06-04T16:17:16.000Z,102206.84
2023-06-04T16:20:21.233Z,102206.00
2023-06-04T16:23:24.981Z,102198.16
2023-06-04T16:26:28.633Z,102198.59
2023-06-04T16:29:32.302Z,102195.53
2023-06-04T16:32:36.088Z,102197.16
2023-06-04T16:35:41.060Z,102187.22
2023-06-04T16:38:44.815Z,102187.06
2023-06-04T16:41:48.563Z,102185.66
2023-06-04T16:44:52.563Z,102191.34
2023-06-04T16:47:56.288Z,102201.00
2023-06-04T16:51:01.455Z,102200.78
2023-06-04T16:54:06.399Z,102194.84
2023-06-04T16:57:10.665Z,102200.53
2023-06-04T17:00:26.630Z,102200.41
2023-06-04T17:03:31.057Z,102201.88
2023-06-04T17:06:37.062Z,102199.25
2023-06-04T17:09:40.839Z,102209.69
2023-06-04T17:12:44.573Z,102209.06
2023-06-04T17:15:48.332Z,102204.84
2023-06-04T17:18:52.039Z,102199.41
2023-06-04T17:21:57.062Z,102211.16
2023-06-04T17:25:00.713Z,102201.88
2023-06-04T17:28:04.378Z,102210.97
2023-06-04T17:31:08.158Z,102216.09
2023-06-04T17:34:11.853Z,102211.00
2023-06-04T17:37:17.038Z,102207.50
2023-06-04T17:40:20.885Z,102216.72
2023-06-04T17:43:26.051Z,102212.13
2023-06-04T17:46:30.004Z,102216.63
2023-06-04T17:49:34.003Z,102221.31
2023-06-04T17:52:39.671Z,102220.28
2023-06-04T17:55:43.501Z,102219.91
2023-06-04T17:58:48.410Z,102223.19
2023-06-04T18:01:53.031Z,102227.22
2023-06-04T18:04:59.976Z,102222.13
2023-06-04T18:08:05.425Z,102221.47
2023-06-04T18:11:10.160Z,102233.25
2023-06-04T18:14:14.005Z,102233.03
2023-06-04T18:17:17.824Z,102230.97
2023-06-04T18:20:24.398Z,102237.38
2023-06-04T18:23:30.030Z,102241.50
2023-06-04T18:26:33.752Z,102234.47
2023-06-04T18:29:37.503Z,102238.84
2023-06-04T18:32:41.257Z,102240.41
2023-06-04T18:35:45.513Z,102245.78
2023-06-04T18:38:50.694Z,102248.03
2023-06-04T18:41:56.507Z,102245.25
2023-06-04T18:45:01.989Z,102255.31
2023-06-04T18:48:06.705Z,102255.09
2023-06-04T18:51:10.391Z,102260.69
2023-06-04T18:54:17.506Z,102267.69
2023-06-04T18:57:21.853Z,102264.41
2023-06-04T19:00:25.780Z,102261.66
2023-06-04T19:03:29.446Z,102262.22
2023-06-04T19:06:33.030Z,102263.25
2023-06-04T19:09:38.244Z,102266.28
2023-06-04T19:12:43.432Z,102267.41
2023-06-04T19:15:47.174Z,102270.47
2023-06-04T19:18:51.137Z,102269.78
2023-06-04T19:21:54.967Z,102273.47
2023-06-04T19:25:00.041Z,102281.56
2023-06-04T19:28:04.660Z,102279.25
2023-06-04T19:31:08.855Z,102284.50
2023-06-04T19:34:13.952Z,102295.72
2023-06-04T19:37:17.795Z,102290.56
2023-06-04T19:40:23.094Z,102292.84
2023-06-04T19:43:27.868Z,102299.31
2023-06-04T19:46:31.669Z,102299.81
2023-06-04T19:49:35.322Z,102304.59
2023-06-04T19:52:38.998Z,102305.75
2023-06-04T19:55:44.293Z,102302.34
2023-06-04T19:58:48.610Z,102318.25
2023-06-04T20:01:52.612Z,102309.56
2023-06-04T20:04:56.767Z,102309.94
2023-06-04T20:08:00.348Z,102322.25
2023-06-04T20:11:05.622Z,102325.69
2023-06-04T20:14:09.475Z,102324.97
2023-06-04T20:17:13.335Z,102331.22
2023-06-04T20:20:17.514Z,102334.94
2023-06-04T20:23:21.482Z,102337.03
2023-06-04T20:26:29.241Z,102338.00
2023-06-04T20:29:33.106Z,102345.16
2023-06-04T20:32:37.171Z,102352.47
2023-06-04T20:35:40.922Z,102354.31
2023-06-04T20:38:44.617Z,102352.34
2023-06-04T20:41:49.762Z,102356.19
2023-06-04T20:44:53.472Z,102364.34
2023-06-04T20:47:57.209Z,102366.34
2023-06-04T20:51:00.846Z,102368.22
2023-06-04T20:54:04.625Z,102361.34
2023-06-04T20:57:09.723Z,102375.19
2023-06-04T21:00:14.654Z,102369.50
2023-06-04T21:03:18.434Z,102364.03
2023-06-04T21:06:22.693Z,102371.22
2023-06-04T21:09:26.870Z,102365.16
2023-06-04T21:12:32.007Z,102368.75
2023-06-04T21:15:35.613Z,102367.25
2023-06-04T21:18:39.273Z,102367.47
2023-06-04T21:21:42.975Z,102371.06
2023-06-04T21:24:48.007Z,102369.41
2023-06-04T21:27:53.139Z,102362.56
2023-06-04T21:30:56.768Z,102363.34
2023-06-04T21:34:00.442Z,102363.47
2023-06-04T21:37:04.455Z,102365.34
2023-06-04T21:40:09.481Z,102365.47
2023-06-04T21:43:14.557Z,102367.22
2023-06-04T21:46:19.066Z,102369.78
2023-06-04T21:49:22.787Z,102373.31
2023-06-04T21:52:26.490Z,102374.09
2023-06-04T21:55:30.090Z,102385.41
2023-06-04T21:58:35.258Z,102380.91
2023-06-04T22:01:38.912Z,102382.97
2023-06-04T22:04:42.582Z,102385.63
2023-06-04T22:07:46.186Z,102390.81
2023-06-04T22:10:49.766Z,102386.53
2023-06-04T22:13:54.877Z,102392.69
2023-06-04T22:16:58.562Z,102402.22
2023-06-04T22:20:02.204Z,102401.44
2023-06-04T22:23:05.971Z,102397.09
2023-06-04T22:26:12.106Z,102399.84
2023-06-04T22:29:21.310Z,102396.31
2023-06-04T22:32:25.257Z,102391.19
2023-06-04T22:35:29.167Z,102396.47
2023-06-04T22:38:32.906Z,102396.56
2023-06-04T22:41:36.661Z,102388.69
2023-06-04T22:44:41.861Z,102385.97
2023-06-04T22:47:45.652Z,102378.16
2023-06-04T22:50:50.051Z,102381.81
2023-06-04T22:53:53.771Z,102381.91
2023-06-04T22:56:57.441Z,102384.50
2023-06-04T23:00:02.386Z,102381.91
2023-06-04T23:03:06.703Z,102393.22
2023-06-04T23:06:10.380Z,102377.50
2023-06-04T23:09:15.106Z,102385.56
2023-06-04T23:12:18.921Z,102395.19
2023-06-04T23:15:25.732Z,102393.47
2023-06-04T23:18:29.394Z,102405.72
2023-06-04T23:21:33.018Z,102398.81
2023-06-04T23:24:36.606Z,102407.63
2023-06-04T23:27:40.566Z,102405.91
2023-06-04T23:30:45.604Z,102405.06
2023-06-04T23:33:49.447Z,102405.94
2023-06-04T23:36:53.086Z,102403.28
2023-06-04T23:39:56.743Z,102415.50
2023-06-04T23:43:00.714Z,102417.31
2023-06-04T23:46:05.749Z,102404.25
2023-06-04T23:49:09.330Z,102407.75
2023-06-04T23:52:13.787Z,102415.66
2023-06-04T23:55:17.311Z,102413.03
2023-06-04T23:58:21.221Z,102411.31
